Terminal Aerodrome Forecast
Issued by NWS Chicago, IL

Home | Current Version | Previous Version | Text Only | Print | Product List | Glossary On
Versions: 1 2 3 4 5 6 7 8 9 10 11 12 13 14 15 16 17 18 19 20 21 22 23 24 25 26 27 28 29 30 31
000
FTUS43 KLOT 300248 AAA
TAFRFD
TAF AMD
KRFD 300248Z 3003/3024 26006KT P6SM SKC
     FM301600 29016G24KT P6SM FEW070=

USA.gov is the U.S. government's official web portal to all federal, state and local government web resources and services.